createdAt,value
2022-11-05T00:01:06.567Z,100559.47
2022-11-05T00:03:53.264Z,100554.94
2022-11-05T00:06:38.509Z,100560.34
2022-11-05T00:09:27.039Z,100556.13
2022-11-05T00:12:12.419Z,100561.19
2022-11-05T00:14:57.673Z,100558.88
2022-11-05T00:17:25.623Z,100568.59
2022-11-05T00:19:54.974Z,100568.25
2022-11-05T00:22:40.539Z,100567.91
2022-11-05T00:25:16.599Z,100567.28
2022-11-05T00:27:50.089Z,100572.50
2022-11-05T00:30:21.030Z,100573.31
2022-11-05T00:32:51.042Z,100574.00
2022-11-05T00:35:23.241Z,100577.69
2022-11-05T00:37:51.061Z,100582.06
2022-11-05T00:40:18.930Z,100581.06
2022-11-05T00:43:04.692Z,100576.34
2022-11-05T00:45:32.792Z,100588.97
2022-11-05T00:48:18.272Z,100582.25
2022-11-05T00:50:47.613Z,100592.88
2022-11-05T00:53:15.513Z,100592.34
2022-11-05T00:55:45.963Z,100596.50
2022-11-05T00:58:16.229Z,100590.31
2022-11-05T01:00:49.327Z,100601.38
2022-11-05T01:03:20.434Z,100601.88
2022-11-05T01:05:52.453Z,100601.53
2022-11-05T01:08:23.748Z,100614.47
2022-11-05T01:10:55.560Z,100612.94
2022-11-05T01:13:26.399Z,100618.31
2022-11-05T01:15:55.142Z,100620.78
2022-11-05T01:18:25.344Z,100615.41
2022-11-05T01:20:54.544Z,100614.25
2022-11-05T01:23:22.390Z,100617.97
2022-11-05T01:25:50.166Z,100621.44
2022-11-05T01:28:18.094Z,100627.66
2022-11-05T01:30:45.922Z,100628.63
2022-11-05T01:33:14.002Z,100627.94
2022-11-05T01:35:42.130Z,100629.81
2022-11-05T01:38:11.340Z,100632.97
2022-11-05T01:40:44.235Z,100635.97
2022-11-05T01:43:18.339Z,100636.66
2022-11-05T01:45:52.134Z,100642.19
2022-11-05T01:48:26.386Z,100645.34
2022-11-05T01:51:00.233Z,100639.66
2022-11-05T01:53:38.564Z,100637.66
2022-11-05T01:56:12.777Z,100649.03
2022-11-05T01:58:48.452Z,100649.03
2022-11-05T02:01:17.049Z,100652.03
2022-11-05T02:03:47.875Z,100651.81
2022-11-05T02:06:18.899Z,100659.41
2022-11-05T02:09:01.581Z,100659.34
2022-11-05T02:11:30.036Z,100664.19
2022-11-05T02:13:57.961Z,100654.59
2022-11-05T02:16:42.218Z,100661.81
2022-11-05T02:19:51.593Z,100673.69
2022-11-05T02:23:03.087Z,100677.00
2022-11-05T02:26:27.193Z,100675.59
2022-11-05T02:29:36.820Z,100669.38
2022-11-05T02:32:14.041Z,100674.06
2022-11-05T02:34:55.632Z,100677.53
2022-11-05T02:37:40.141Z,100686.72
2022-11-05T02:40:19.193Z,100690.56
2022-11-05T02:43:00.081Z,100689.72
2022-11-05T02:45:46.020Z,100683.09
2022-11-05T02:48:31.064Z,100684.44
2022-11-05T02:51:09.788Z,100691.78
2022-11-05T02:53:49.974Z,100691.63
2022-11-05T02:56:24.520Z,100694.78
2022-11-05T02:58:52.363Z,100690.53
2022-11-05T03:01:20.156Z,100703.25
2022-11-05T03:03:54.735Z,100699.59
2022-11-05T03:06:53.504Z,100704.13
2022-11-05T03:09:40.095Z,100706.41
2022-11-05T03:12:29.338Z,100717.75
2022-11-05T03:15:09.929Z,100712.41
2022-11-05T03:17:46.169Z,100720.94
2022-11-05T03:20:24.411Z,100713.06
2022-11-05T03:23:06.344Z,100716.34
2022-11-05T03:25:44.385Z,100720.06
2022-11-05T03:28:15.954Z,100725.09
2022-11-05T03:30:46.793Z,100735.97
2022-11-05T03:33:21.766Z,100727.41
2022-11-05T03:35:56.571Z,100736.25
2022-11-05T03:38:30.447Z,100733.56
2022-11-05T03:41:04.871Z,100739.41
2022-11-05T03:43:39.191Z,100746.91
2022-11-05T03:46:12.966Z,100747.22
2022-11-05T03:48:48.384Z,100757.38
2022-11-05T03:51:31.391Z,100759.38
2022-11-05T03:54:03.736Z,100757.06
2022-11-05T03:56:41.351Z,100766.44
2022-11-05T03:59:12.281Z,100769.78
2022-11-05T04:01:43.323Z,100777.44
2022-11-05T04:04:11.421Z,100774.75
2022-11-05T04:06:58.235Z,100776.88
2022-11-05T04:09:43.631Z,100773.25
2022-11-05T04:12:29.515Z,100775.34
2022-11-05T04:14:57.498Z,100780.31
2022-11-05T04:17:24.513Z,100782.28
2022-11-05T04:20:09.952Z,100789.06
2022-11-05T04:22:56.561Z,100794.00
2022-11-05T04:25:24.513Z,100798.28
2022-11-05T04:27:52.778Z,100798.41
2022-11-05T04:30:20.433Z,100807.13
2022-11-05T04:33:01.135Z,100813.34
2022-11-05T04:35:31.679Z,100809.97
2022-11-05T04:38:01.358Z,100814.19
2022-11-05T04:40:29.657Z,100815.63
2022-11-05T04:42:58.456Z,100816.03
2022-11-05T04:45:28.502Z,100821.97
2022-11-05T04:47:56.527Z,100818.69
2022-11-05T04:50:24.838Z,100814.75
2022-11-05T04:52:52.921Z,100817.59
2022-11-05T04:55:22.464Z,100822.13
2022-11-05T04:57:51.580Z,100819.56
2022-11-05T05:00:21.134Z,100822.13
2022-11-05T05:02:49.364Z,100824.81
2022-11-05T05:05:17.312Z,100821.69
2022-11-05T05:07:45.170Z,100820.88
2022-11-05T05:10:13.960Z,100823.53
2022-11-05T05:12:43.149Z,100825.38
2022-11-05T05:15:11.014Z,100831.59
2022-11-05T05:17:38.914Z,100828.91
2022-11-05T05:20:25.577Z,100827.38
2022-11-05T05:22:54.467Z,100834.72
2022-11-05T05:25:23.191Z,100833.44
2022-11-05T05:27:52.451Z,100838.66
2022-11-05T05:30:23.702Z,100844.59
2022-11-05T05:32:51.561Z,100838.53
2022-11-05T05:35:19.327Z,100846.56
2022-11-05T05:37:47.192Z,100843.75
2022-11-05T05:40:14.991Z,100852.66
2022-11-05T05:42:43.555Z,100856.41
2022-11-05T05:45:13.386Z,100862.78
2022-11-05T05:47:41.219Z,100864.63
2022-11-05T05:50:09.388Z,100864.75
2022-11-05T05:52:37.242Z,100868.69
2022-11-05T05:55:06.005Z,100872.63
2022-11-05T05:57:34.955Z,100881.53
2022-11-05T06:00:02.849Z,100875.06
2022-11-05T06:02:33.115Z,100878.84
2022-11-05T06:05:00.970Z,100881.53
2022-11-05T06:07:33.055Z,100887.03
2022-11-05T06:10:03.994Z,100897.59
2022-11-05T06:12:31.923Z,100896.63
2022-11-05T06:14:59.722Z,100904.50
2022-11-05T06:17:27.556Z,100915.63
2022-11-05T06:19:56.836Z,100925.50
2022-11-05T06:22:24.684Z,100925.75
2022-11-05T06:24:52.533Z,100922.13
2022-11-05T06:27:20.376Z,100928.56
2022-11-05T06:29:48.256Z,100935.06
2022-11-05T06:32:16.145Z,100935.94
2022-11-05T06:34:45.155Z,100930.44
2022-11-05T06:37:14.297Z,100945.06
2022-11-05T06:39:42.055Z,100954.25
2022-11-05T06:42:18.389Z,100955.91
2022-11-05T06:44:46.726Z,100957.19
2022-11-05T06:47:14.558Z,100954.63
2022-11-05T06:49:42.416Z,100961.84
2022-11-05T06:52:10.209Z,100964.94
2022-11-05T06:54:39.398Z,100963.94
2022-11-05T06:57:09.546Z,100967.34
2022-11-05T06:59:37.712Z,100966.09
2022-11-05T07:02:05.827Z,100968.91
2022-11-05T07:04:33.899Z,100979.63
2022-11-05T07:07:01.792Z,100980.72
2022-11-05T07:09:30.361Z,100984.97
2022-11-05T07:11:59.579Z,100983.97
2022-11-05T07:14:27.409Z,100990.47
2022-11-05T07:16:55.171Z,101000.91
2022-11-05T07:19:22.973Z,101002.34
2022-11-05T07:21:51.732Z,101012.19
2022-11-05T07:24:19.566Z,101011.34
2022-11-05T07:26:47.351Z,101012.19
2022-11-05T07:29:16.559Z,101019.22
2022-11-05T07:31:44.340Z,101017.28
2022-11-05T07:34:12.262Z,101022.19
2022-11-05T07:36:40.376Z,101021.81
2022-11-05T07:39:08.199Z,101020.22
2022-11-05T07:41:36.026Z,101032.22
2022-11-05T07:44:04.375Z,101028.03
2022-11-05T07:46:33.601Z,101039.13
2022-11-05T07:49:01.430Z,101039.41
2022-11-05T07:51:29.350Z,101033.66
2022-11-05T07:53:57.182Z,101031.84
2022-11-05T07:56:24.975Z,101026.75
2022-11-05T07:58:52.707Z,101027.16
2022-11-05T08:01:20.604Z,101032.38
2022-11-05T08:03:49.941Z,101037.19
2022-11-05T08:06:17.821Z,101033.09
2022-11-05T08:08:45.653Z,101032.38
2022-11-05T08:11:13.760Z,101041.69
2022-11-05T08:13:42.767Z,101049.78
2022-11-05T08:16:10.865Z,101054.69
2022-11-05T08:18:39.421Z,101051.75
2022-11-05T08:21:09.562Z,101054.44
2022-11-05T08:23:38.705Z,101059.78
2022-11-05T08:26:07.013Z,101063.31
2022-11-05T08:28:34.856Z,101059.94
2022-11-05T08:31:02.745Z,101065.44
2022-11-05T08:33:31.384Z,101067.97
2022-11-05T08:36:03.912Z,101073.88
2022-11-05T08:38:33.323Z,101072.78
2022-11-05T08:41:01.776Z,101070.38
2022-11-05T08:43:29.640Z,101082.78
2022-11-05T08:45:57.467Z,101083.63
2022-11-05T08:48:25.322Z,101089.53
2022-11-05T08:50:53.337Z,101085.31
2022-11-05T08:53:21.411Z,101083.78
2022-11-05T08:55:51.460Z,101087.56
2022-11-05T08:58:20.675Z,101093.22
2022-11-05T09:00:50.907Z,101095.00
2022-11-05T09:03:19.227Z,101094.00
2022-11-05T09:05:47.038Z,101094.00
2022-11-05T09:08:17.653Z,101092.06
2022-11-05T09:10:47.569Z,101103.22
2022-11-05T09:13:19.851Z,101110.69
2022-11-05T09:15:48.753Z,101108.97
2022-11-05T09:18:18.594Z,101119.56
2022-11-05T09:20:46.871Z,101126.72
2022-11-05T09:23:15.839Z,101118.66
2022-11-05T09:25:44.193Z,101126.81
2022-11-05T09:28:17.333Z,101130.06
2022-11-05T09:30:47.820Z,101132.28
2022-11-05T09:33:17.859Z,101136.16
2022-11-05T09:35:45.858Z,101132.34
2022-11-05T09:38:13.949Z,101134.50
2022-11-05T09:40:56.049Z,101141.28
2022-11-05T09:43:32.078Z,101144.22
2022-11-05T09:46:08.532Z,101138.84
2022-11-05T09:48:39.059Z,101147.06
2022-11-05T09:51:07.796Z,101144.22
2022-11-05T09:53:41.975Z,101148.44
2022-11-05T09:56:22.452Z,101145.09
2022-11-05T09:58:58.342Z,101150.91
2022-11-05T10:01:32.036Z,101147.91
2022-11-05T10:04:07.310Z,101159.06
2022-11-05T10:06:35.727Z,101161.38
2022-11-05T10:09:09.952Z,101158.38
2022-11-05T10:11:45.660Z,101156.75
2022-11-05T10:14:23.910Z,101158.16
2022-11-05T10:16:59.265Z,101161.09
2022-11-05T10:19:37.261Z,101164.50
2022-11-05T10:22:16.184Z,101161.69
2022-11-05T10:24:47.158Z,101159.94
2022-11-05T10:27:20.782Z,101161.09
2022-11-05T10:29:51.423Z,101156.25
2022-11-05T10:32:31.144Z,101158.38
2022-11-05T10:35:02.635Z,101166.22
2022-11-05T10:37:38.267Z,101163.09
2022-11-05T10:40:20.719Z,101167.13
2022-11-05T10:43:01.487Z,101165.50
2022-11-05T10:45:44.821Z,101166.84
2022-11-05T10:48:48.010Z,101170.31
2022-11-05T10:51:17.408Z,101171.69
2022-11-05T10:54:00.387Z,101175.53
2022-11-05T10:56:33.426Z,101178.16
2022-11-05T10:59:06.671Z,101181.00
2022-11-05T11:01:38.995Z,101184.53
2022-11-05T11:04:21.521Z,101187.81
2022-11-05T11:06:52.718Z,101184.13
2022-11-05T11:09:25.817Z,101187.03
2022-11-05T11:12:03.697Z,101194.53
2022-11-05T11:14:32.443Z,101194.31
2022-11-05T11:17:29.354Z,101194.66
2022-11-05T11:20:28.746Z,101186.25
2022-11-05T11:23:11.476Z,101189.66
2022-11-05T11:25:48.449Z,101189.34
2022-11-05T11:28:30.156Z,101193.13
2022-11-05T11:31:08.344Z,101196.88
2022-11-05T11:33:40.206Z,101194.53
2022-11-05T11:36:11.629Z,101186.25
2022-11-05T11:38:41.304Z,101193.13
2022-11-05T11:41:27.863Z,101190.88
2022-11-05T11:44:00.668Z,101193.78
2022-11-05T11:46:35.173Z,101192.97
2022-11-05T11:49:07.120Z,101202.41
2022-11-05T11:51:40.658Z,101197.72
2022-11-05T11:54:23.907Z,101198.53
2022-11-05T11:56:55.026Z,101201.38
2022-11-05T11:59:53.881Z,101200.94
2022-11-05T12:02:48.089Z,101197.22
2022-11-05T12:05:33.666Z,101203.97
2022-11-05T12:08:24.444Z,101206.78
2022-11-05T12:11:04.093Z,101200.75
2022-11-05T12:13:56.298Z,101204.59
2022-11-05T12:16:57.472Z,101197.94
2022-11-05T12:19:54.605Z,101195.75
2022-11-05T12:22:41.491Z,101200.22
2022-11-05T12:25:26.850Z,101205.09
2022-11-05T12:28:19.936Z,101199.06
2022-11-05T12:31:10.919Z,101198.38
2022-11-05T12:33:56.488Z,101206.34
2022-11-05T12:36:58.629Z,101201.59
2022-11-05T12:39:58.856Z,101193.78
2022-11-05T12:42:49.489Z,101193.50
2022-11-05T12:45:32.062Z,101195.25
2022-11-05T12:48:31.596Z,101199.75
2022-11-05T12:51:25.405Z,101195.13
2022-11-05T12:54:06.556Z,101199.91
2022-11-05T12:56:44.236Z,101198.63
2022-11-05T12:59:22.183Z,101194.56
2022-11-05T13:01:57.447Z,101201.16
2022-11-05T13:04:39.201Z,101199.16
2022-11-05T13:07:14.655Z,101188.22
2022-11-05T13:09:50.146Z,101200.84
2022-11-05T13:12:25.965Z,101199.00
2022-11-05T13:15:01.272Z,101199.50
2022-11-05T13:17:38.577Z,101197.59
2022-11-05T13:20:17.798Z,101206.06
2022-11-05T13:22:49.579Z,101198.13
2022-11-05T13:25:25.300Z,101198.28
2022-11-05T13:28:05.998Z,101199.00
2022-11-05T13:30:38.694Z,101197.53
2022-11-05T13:33:16.574Z,101204.59
2022-11-05T13:36:13.211Z,101202.94
2022-11-05T13:38:59.204Z,101216.00
2022-11-05T13:41:48.489Z,101215.28
2022-11-05T13:44:45.038Z,101218.09
2022-11-05T13:47:36.963Z,101218.97
2022-11-05T13:50:56.415Z,101223.22
2022-11-05T13:54:27.120Z,101222.88
2022-11-05T13:57:18.875Z,101232.19
2022-11-05T14:00:08.142Z,101229.84
2022-11-05T14:02:43.124Z,101221.91
2022-11-05T14:05:29.778Z,101232.31
2022-11-05T14:08:01.229Z,101222.50
2022-11-05T14:10:38.547Z,101226.44
2022-11-05T14:13:22.009Z,101232.28
2022-11-05T14:16:05.388Z,101234.78
2022-11-05T14:18:41.395Z,101240.66
2022-11-05T14:21:33.377Z,101238.59
2022-11-05T14:24:25.621Z,101245.81
2022-11-05T14:27:43.596Z,101243.78
2022-11-05T14:30:41.759Z,101244.19
2022-11-05T14:33:33.109Z,101244.00
2022-11-05T14:36:35.736Z,101246.31
2022-11-05T14:39:33.268Z,101247.97
2022-11-05T14:42:11.567Z,101250.44
2022-11-05T14:45:00.639Z,101244.16
2022-11-05T14:47:33.318Z,101247.38
2022-11-05T14:50:11.515Z,101252.28
2022-11-05T14:52:42.081Z,101255.63
2022-11-05T14:55:29.598Z,101258.94
2022-11-05T14:58:34.168Z,101263.94
2022-11-05T15:01:03.437Z,101250.94
2022-11-05T15:04:11.836Z,101259.50
2022-11-05T15:06:41.121Z,101260.66
2022-11-05T15:09:20.353Z,101258.75
2022-11-05T15:12:13.866Z,101257.34
2022-11-05T15:15:02.922Z,101257.44
2022-11-05T15:17:39.041Z,101271.22
2022-11-05T15:20:15.105Z,101272.78
2022-11-05T15:22:48.294Z,101265.13
2022-11-05T15:25:22.190Z,101268.06
2022-11-05T15:28:05.347Z,101277.56
2022-11-05T15:30:33.475Z,101274.41
2022-11-05T15:33:19.541Z,101269.91
2022-11-05T15:35:47.603Z,101287.09
2022-11-05T15:38:31.479Z,101277.19
2022-11-05T15:41:02.253Z,101279.97
2022-11-05T15:43:30.915Z,101289.03
2022-11-05T15:46:04.772Z,101290.78
2022-11-05T15:48:33.835Z,101283.16
2022-11-05T15:51:02.319Z,101286.97
2022-11-05T15:56:52.134Z,101290.84
2022-11-05T15:59:23.146Z,101292.22
2022-11-05T16:01:56.475Z,101290.84
2022-11-05T16:04:28.709Z,101299.06
2022-11-05T16:07:00.647Z,101286.91
2022-11-05T16:09:33.814Z,101300.06
2022-11-05T16:12:24.949Z,101299.53
2022-11-05T16:15:03.911Z,101294.59
2022-11-05T16:17:46.367Z,101302.25
2022-11-05T16:20:25.906Z,101291.78
2022-11-05T16:22:57.481Z,101292.09
2022-11-05T16:25:39.980Z,101297.03
2022-11-05T16:28:24.166Z,101295.06
2022-11-05T16:30:57.623Z,101299.31
2022-11-05T16:33:32.433Z,101299.03
2022-11-05T16:36:00.476Z,101301.16
2022-11-05T16:38:29.281Z,101302.56
2022-11-05T16:41:00.304Z,101304.25
2022-11-05T16:43:28.571Z,101303.28
2022-11-05T16:45:59.901Z,101309.06
2022-11-05T16:48:28.899Z,101304.28
2022-11-05T16:50:56.820Z,101303.28
2022-11-05T16:53:24.661Z,101307.97
2022-11-05T16:55:52.454Z,101320.94
2022-11-05T16:58:24.964Z,101326.47
2022-11-05T17:01:02.679Z,101321.53
2022-11-05T17:03:30.563Z,101327.19
2022-11-05T17:05:58.331Z,101339.34
2022-11-05T17:08:26.149Z,101345.81
2022-11-05T17:10:54.014Z,101342.28
2022-11-05T17:13:23.378Z,101349.38
2022-11-05T17:15:52.773Z,101353.59
2022-11-05T17:18:21.350Z,101359.97
2022-11-05T17:20:52.724Z,101356.44
2022-11-05T17:23:24.208Z,101356.84
2022-11-05T17:26:00.100Z,101366.16
2022-11-05T17:28:30.426Z,101367.44
2022-11-05T17:31:00.471Z,101360.50
2022-11-05T17:33:29.042Z,101361.66
2022-11-05T17:35:57.929Z,101362.91
2022-11-05T17:38:27.870Z,101368.41
2022-11-05T17:40:55.777Z,101371.00
2022-11-05T17:43:24.489Z,101378.75
2022-11-05T17:45:55.164Z,101375.63
2022-11-05T17:48:24.394Z,101377.63
2022-11-05T17:50:52.350Z,101376.44
2022-11-05T17:53:20.910Z,101380.81
2022-11-05T17:55:49.226Z,101381.13
2022-11-05T17:58:17.269Z,101381.78
2022-11-05T18:00:46.608Z,101386.16
2022-11-05T18:03:16.373Z,101382.47
2022-11-05T18:05:44.352Z,101383.34
2022-11-05T18:08:12.533Z,101387.69
2022-11-05T18:10:41.562Z,101385.28
2022-11-05T18:13:09.947Z,101389.94
2022-11-05T18:15:41.029Z,101384.69
2022-11-05T18:18:09.450Z,101381.53
2022-11-05T18:20:38.752Z,101375.19
2022-11-05T18:23:07.316Z,101382.06
2022-11-05T18:25:35.262Z,101376.94
2022-11-05T18:28:04.417Z,101377.63
2022-11-05T18:31:24.853Z,101379.63
2022-11-05T18:36:55.978Z,101375.94
2022-11-05T18:42:44.850Z,101371.66
2022-11-05T18:45:16.710Z,101368.66
2022-11-05T18:47:45.613Z,101371.34
2022-11-05T18:50:14.715Z,101369.09
2022-11-05T18:52:50.054Z,101370.47
2022-11-05T18:55:34.468Z,101372.28
2022-11-05T18:58:31.153Z,101372.69
2022-11-05T19:01:23.664Z,101379.47
2022-11-05T19:05:28.015Z,101379.81
2022-11-05T19:07:57.311Z,101372.88
2022-11-05T19:10:25.366Z,101377.78
2022-11-05T19:12:53.813Z,101383.28
2022-11-05T19:15:21.609Z,101384.16
2022-11-05T19:17:49.438Z,101384.69
2022-11-05T19:20:17.320Z,101382.53
2022-11-05T19:22:45.084Z,101378.59
2022-11-05T19:25:14.323Z,101381.84
2022-11-05T19:27:43.630Z,101374.22
2022-11-05T19:30:12.578Z,101382.41
2022-11-05T19:32:40.397Z,101388.72
2022-11-05T19:35:09.047Z,101385.22
2022-11-05T19:37:36.917Z,101389.28
2022-11-05T19:40:05.544Z,101384.19
2022-11-05T19:42:34.696Z,101389.59
2022-11-05T19:45:23.159Z,101384.66
2022-11-05T19:47:50.891Z,101387.84
2022-11-05T19:50:18.955Z,101389.59
2022-11-05T19:52:46.732Z,101384.06
2022-11-05T19:55:14.565Z,101383.72
2022-11-05T19:57:44.975Z,101378.16
2022-11-05T20:00:14.804Z,101386.84
2022-11-05T20:02:45.714Z,101388.78
2022-11-05T20:05:14.995Z,101389.66
2022-11-05T20:07:53.191Z,101390.47
2022-11-05T20:14:38.041Z,101390.06
2022-11-05T20:17:50.944Z,101396.78
2022-11-05T20:24:06.714Z,101395.84
2022-11-05T20:26:55.507Z,101407.03
2022-11-05T20:29:52.393Z,101406.91
2022-11-05T20:32:27.489Z,101412.50
2022-11-05T20:38:38.002Z,101416.56
2022-11-05T20:41:33.644Z,101419.47
2022-11-05T20:44:02.106Z,101416.72
2022-11-05T20:46:32.747Z,101416.94
2022-11-05T20:52:06.893Z,101409.03
2022-11-05T20:55:15.319Z,101395.72
2022-11-05T20:57:47.536Z,101409.63
2022-11-05T21:00:19.748Z,101410.63
2022-11-05T21:09:26.246Z,101427.66
2022-11-05T21:12:53.489Z,101429.63
2022-11-05T21:15:23.166Z,101430.47
2022-11-05T21:17:54.349Z,101433.63
2022-11-05T21:20:23.603Z,101440.91
2022-11-05T21:22:51.492Z,101433.16
2022-11-05T21:25:19.416Z,101440.69
2022-11-05T21:27:47.243Z,101437.88
2022-11-05T21:30:15.493Z,101431.09
2022-11-05T21:33:06.007Z,101428.78
2022-11-05T21:35:39.315Z,101421.13
2022-11-05T21:38:36.718Z,101413.59
2022-11-05T21:41:07.093Z,101421.00
2022-11-05T21:43:35.304Z,101422.22
2022-11-05T21:46:06.049Z,101418.56
2022-11-05T21:48:34.179Z,101409.31
2022-11-05T21:51:20.941Z,101408.81
2022-11-05T21:54:06.323Z,101412.22
2022-11-05T21:56:52.273Z,101410.50
2022-11-05T21:59:41.738Z,101415.97
2022-11-05T22:02:13.431Z,101420.72
2022-11-05T22:04:45.132Z,101423.75
2022-11-05T22:07:18.514Z,101427.50
2022-11-05T22:09:47.651Z,101420.72
2022-11-05T22:12:16.301Z,101418.91
2022-11-05T22:14:44.960Z,101418.16
2022-11-05T22:17:14.295Z,101416.59
2022-11-05T22:19:42.468Z,101414.06
2022-11-05T22:22:10.413Z,101415.88
2022-11-05T22:24:41.126Z,101407.72
2022-11-05T22:27:13.685Z,101422.44
2022-11-05T22:29:41.657Z,101414.41
2022-11-05T22:32:10.946Z,101412.34
2022-11-05T22:34:38.827Z,101412.69
2022-11-05T22:37:07.150Z,101409.06
2022-11-05T22:39:35.266Z,101408.69
2022-11-05T22:42:08.439Z,101408.34
2022-11-05T22:44:37.668Z,101404.72
2022-11-05T22:47:06.504Z,101405.81
2022-11-05T22:49:35.254Z,101414.44
2022-11-05T22:52:03.427Z,101417.59
2022-11-05T22:54:36.340Z,101418.34
2022-11-05T22:57:08.616Z,101417.94
2022-11-05T22:59:36.518Z,101414.53
2022-11-05T23:02:09.431Z,101416.97
2022-11-05T23:04:38.376Z,101413.09
2022-11-05T23:07:27.582Z,101420.84
2022-11-05T23:10:14.019Z,101413.09
2022-11-05T23:12:44.575Z,101414.06
2022-11-05T23:15:34.306Z,101414.06
2022-11-05T23:18:20.473Z,101410.78
2022-11-05T23:21:05.742Z,101417.09
2022-11-05T23:24:02.604Z,101420.25
2022-11-05T23:26:48.135Z,101419.75
2022-11-05T23:29:17.409Z,101422.09
2022-11-05T23:31:59.343Z,101420.72
2022-11-05T23:34:27.455Z,101416.09
2022-11-05T23:37:13.141Z,101405.53
2022-11-05T23:39:42.864Z,101400.28
2022-11-05T23:42:29.186Z,101411.22
2022-11-05T23:45:16.476Z,101407.81
2022-11-05T23:48:01.955Z,101411.84
2022-11-05T23:50:35.624Z,101405.63
2022-11-05T23:53:06.653Z,101399.78
2022-11-05T23:55:34.502Z,101404.66
2022-11-05T23:58:02.301Z,101400.78
